sensor_id;sensor_type;location;lat;lon;timestamp;P1;durP1;ratioP1;P2;durP2;ratioP2
52432;SDS011;38352;53.244;6.594;2022-07-29T00:01:48;4.45;;;1.75;;
52432;SDS011;38352;53.244;6.594;2022-07-29T00:04:14;4.45;;;2.00;;
52432;SDS011;38352;53.244;6.594;2022-07-29T00:06:40;4.78;;;1.90;;
52432;SDS011;38352;53.244;6.594;2022-07-29T00:09:06;4.90;;;2.10;;
52432;SDS011;38352;53.244;6.594;2022-07-29T00:11:33;4.45;;;1.50;;
52432;SDS011;38352;53.244;6.594;2022-07-29T00:13:59;4.53;;;1.85;;
52432;SDS011;38352;53.244;6.594;2022-07-29T00:16:25;3.75;;;1.95;;
52432;SDS011;38352;53.244;6.594;2022-07-29T00:18:51;4.45;;;1.70;;
52432;SDS011;38352;53.244;6.594;2022-07-29T00:21:17;5.78;;;1.90;;
52432;SDS011;38352;53.244;6.594;2022-07-29T00:23:43;5.10;;;1.75;;
52432;SDS011;38352;53.244;6.594;2022-07-29T00:26:09;3.45;;;1.70;;
52432;SDS011;38352;53.244;6.594;2022-07-29T00:28:35;2.90;;;1.65;;
52432;SDS011;38352;53.244;6.594;2022-07-29T00:31:01;5.68;;;1.73;;
52432;SDS011;38352;53.244;6.594;2022-07-29T00:33:28;5.80;;;2.20;;
52432;SDS011;38352;53.244;6.594;2022-07-29T00:35:54;4.18;;;1.85;;
52432;SDS011;38352;53.244;6.594;2022-07-29T00:38:20;4.95;;;2.15;;
52432;SDS011;38352;53.244;6.594;2022-07-29T00:40:47;3.72;;;1.73;;
52432;SDS011;38352;53.244;6.594;2022-07-29T00:43:13;3.83;;;1.92;;
52432;SDS011;38352;53.244;6.594;2022-07-29T00:45:40;3.97;;;1.85;;
52432;SDS011;38352;53.244;6.594;2022-07-29T00:48:06;8.38;;;2.25;;
52432;SDS011;38352;53.244;6.594;2022-07-29T00:50:33;3.67;;;1.42;;
52432;SDS011;38352;53.244;6.594;2022-07-29T00:53:00;3.47;;;1.95;;
52432;SDS011;38352;53.244;6.594;2022-07-29T00:55:26;4.63;;;1.77;;
52432;SDS011;38352;53.244;6.594;2022-07-29T00:57:52;2.72;;;1.70;;
52432;SDS011;38352;53.244;6.594;2022-07-29T01:00:20;4.43;;;1.58;;
52432;SDS011;38352;53.244;6.594;2022-07-29T01:02:47;4.03;;;2.00;;
52432;SDS011;38352;53.244;6.594;2022-07-29T01:05:13;4.78;;;2.30;;
52432;SDS011;38352;53.244;6.594;2022-07-29T01:07:40;4.40;;;2.15;;
52432;SDS011;38352;53.244;6.594;2022-07-29T01:10:07;3.47;;;1.75;;
52432;SDS011;38352;53.244;6.594;2022-07-29T01:12:35;4.28;;;1.67;;
52432;SDS011;38352;53.244;6.594;2022-07-29T01:15:03;4.10;;;1.73;;
52432;SDS011;38352;53.244;6.594;2022-07-29T01:22:35;3.63;;;1.58;;
52432;SDS011;38352;53.244;6.594;2022-07-29T01:30:04;4.35;;;1.60;;
52432;SDS011;38352;53.244;6.594;2022-07-29T01:32:36;5.07;;;2.33;;
52432;SDS011;38352;53.244;6.594;2022-07-29T01:35:05;4.15;;;1.70;;
52432;SDS011;38352;53.244;6.594;2022-07-29T01:37:39;4.05;;;1.90;;
52432;SDS011;38352;53.244;6.594;2022-07-29T01:40:11;3.88;;;1.85;;
52432;SDS011;38352;53.244;6.594;2022-07-29T01:42:43;3.45;;;1.73;;
52432;SDS011;38352;53.244;6.594;2022-07-29T01:47:40;3.25;;;1.65;;
52432;SDS011;38352;53.244;6.594;2022-07-29T01:50:08;4.53;;;1.75;;
52432;SDS011;38352;53.244;6.594;2022-07-29T01:52:36;4.65;;;1.77;;
52432;SDS011;38352;53.244;6.594;2022-07-29T01:55:04;4.72;;;1.60;;
52432;SDS011;38352;53.244;6.594;2022-07-29T01:57:32;3.80;;;2.45;;
52432;SDS011;38352;53.244;6.594;2022-07-29T01:59:59;3.05;;;1.58;;
52432;SDS011;38352;53.244;6.594;2022-07-29T02:02:27;4.03;;;2.00;;
52432;SDS011;38352;53.244;6.594;2022-07-29T02:04:53;4.72;;;2.13;;
52432;SDS011;38352;53.244;6.594;2022-07-29T02:07:21;5.07;;;2.15;;
52432;SDS011;38352;53.244;6.594;2022-07-29T02:09:47;4.38;;;1.98;;
52432;SDS011;38352;53.244;6.594;2022-07-29T02:12:16;5.80;;;2.00;;
52432;SDS011;38352;53.244;6.594;2022-07-29T02:14:52;4.65;;;1.88;;
52432;SDS011;38352;53.244;6.594;2022-07-29T02:17:29;4.13;;;1.90;;
52432;SDS011;38352;53.244;6.594;2022-07-29T02:19:57;6.93;;;2.10;;
52432;SDS011;38352;53.244;6.594;2022-07-29T02:22:25;6.13;;;1.85;;
52432;SDS011;38352;53.244;6.594;2022-07-29T02:24:52;2.88;;;1.83;;
52432;SDS011;38352;53.244;6.594;2022-07-29T02:27:19;5.95;;;1.88;;
52432;SDS011;38352;53.244;6.594;2022-07-29T02:29:46;6.18;;;1.80;;
52432;SDS011;38352;53.244;6.594;2022-07-29T02:32:13;6.72;;;1.83;;
52432;SDS011;38352;53.244;6.594;2022-07-29T02:34:40;4.55;;;1.90;;
52432;SDS011;38352;53.244;6.594;2022-07-29T02:37:08;5.63;;;1.80;;
52432;SDS011;38352;53.244;6.594;2022-07-29T02:39:35;3.25;;;1.88;;
52432;SDS011;38352;53.244;6.594;2022-07-29T02:42:03;4.07;;;2.10;;
52432;SDS011;38352;53.244;6.594;2022-07-29T02:44:29;7.05;;;2.60;;
52432;SDS011;38352;53.244;6.594;2022-07-29T02:47:08;3.80;;;1.73;;
52432;SDS011;38352;53.244;6.594;2022-07-29T02:49:38;4.63;;;1.83;;
52432;SDS011;38352;53.244;6.594;2022-07-29T02:54:37;6.55;;;2.00;;
52432;SDS011;38352;53.244;6.594;2022-07-29T02:59:30;4.95;;;2.25;;
52432;SDS011;38352;53.244;6.594;2022-07-29T03:01:58;7.00;;;2.20;;
52432;SDS011;38352;53.244;6.594;2022-07-29T03:04:25;3.70;;;1.92;;
52432;SDS011;38352;53.244;6.594;2022-07-29T03:06:53;6.20;;;2.33;;
52432;SDS011;38352;53.244;6.594;2022-07-29T03:09:20;13.57;;;2.20;;
52432;SDS011;38352;53.244;6.594;2022-07-29T03:11:47;4.82;;;1.90;;
52432;SDS011;38352;53.244;6.594;2022-07-29T03:14:13;6.05;;;2.20;;
52432;SDS011;38352;53.244;6.594;2022-07-29T03:16:39;3.70;;;2.00;;
52432;SDS011;38352;53.244;6.594;2022-07-29T03:19:06;5.47;;;1.90;;
52432;SDS011;38352;53.244;6.594;2022-07-29T03:21:32;4.50;;;2.10;;
52432;SDS011;38352;53.244;6.594;2022-07-29T03:23:59;5.20;;;2.20;;
52432;SDS011;38352;53.244;6.594;2022-07-29T03:26:25;7.25;;;2.30;;
52432;SDS011;38352;53.244;6.594;2022-07-29T03:28:51;9.02;;;2.65;;
52432;SDS011;38352;53.244;6.594;2022-07-29T03:31:17;6.40;;;2.03;;
52432;SDS011;38352;53.244;6.594;2022-07-29T03:33:43;3.90;;;2.08;;
52432;SDS011;38352;53.244;6.594;2022-07-29T03:36:09;3.58;;;2.00;;
52432;SDS011;38352;53.244;6.594;2022-07-29T03:38:35;5.28;;;2.17;;
52432;SDS011;38352;53.244;6.594;2022-07-29T03:41:05;3.30;;;1.90;;
52432;SDS011;38352;53.244;6.594;2022-07-29T03:43:34;7.40;;;2.22;;
52432;SDS011;38352;53.244;6.594;2022-07-29T03:46:01;7.38;;;2.22;;
52432;SDS011;38352;53.244;6.594;2022-07-29T03:48:28;9.02;;;2.65;;
52432;SDS011;38352;53.244;6.594;2022-07-29T03:50:55;4.00;;;2.10;;
52432;SDS011;38352;53.244;6.594;2022-07-29T03:53:22;5.72;;;2.28;;
52432;SDS011;38352;53.244;6.594;2022-07-29T03:55:50;4.68;;;2.30;;
52432;SDS011;38352;53.244;6.594;2022-07-29T03:58:18;5.30;;;2.25;;
52432;SDS011;38352;53.244;6.594;2022-07-29T04:00:44;5.43;;;2.25;;
52432;SDS011;38352;53.244;6.594;2022-07-29T04:03:11;6.30;;;2.40;;
52432;SDS011;38352;53.244;6.594;2022-07-29T04:05:37;3.75;;;1.92;;
52432;SDS011;38352;53.244;6.594;2022-07-29T04:08:03;5.53;;;2.33;;
52432;SDS011;38352;53.244;6.594;2022-07-29T04:10:29;5.43;;;2.30;;
52432;SDS011;38352;53.244;6.594;2022-07-29T04:12:55;4.88;;;2.00;;
52432;SDS011;38352;53.244;6.594;2022-07-29T04:15:21;7.80;;;2.40;;
52432;SDS011;38352;53.244;6.594;2022-07-29T04:17:47;5.18;;;2.10;;
52432;SDS011;38352;53.244;6.594;2022-07-29T04:20:13;5.13;;;2.13;;
52432;SDS011;38352;53.244;6.594;2022-07-29T04:22:40;7.50;;;2.30;;
52432;SDS011;38352;53.244;6.594;2022-07-29T04:25:06;5.32;;;2.10;;
52432;SDS011;38352;53.244;6.594;2022-07-29T04:27:32;6.25;;;2.47;;
52432;SDS011;38352;53.244;6.594;2022-07-29T04:29:58;4.82;;;2.13;;
52432;SDS011;38352;53.244;6.594;2022-07-29T04:32:24;5.32;;;2.22;;
52432;SDS011;38352;53.244;6.594;2022-07-29T04:34:51;5.72;;;1.98;;
52432;SDS011;38352;53.244;6.594;2022-07-29T04:37:18;4.82;;;1.92;;
52432;SDS011;38352;53.244;6.594;2022-07-29T04:39:44;4.72;;;1.95;;
52432;SDS011;38352;53.244;6.594;2022-07-29T04:42:10;4.95;;;2.47;;
52432;SDS011;38352;53.244;6.594;2022-07-29T04:44:36;8.52;;;2.80;;
52432;SDS011;38352;53.244;6.594;2022-07-29T04:47:02;5.22;;;2.22;;
52432;SDS011;38352;53.244;6.594;2022-07-29T04:49:28;6.15;;;2.10;;
52432;SDS011;38352;53.244;6.594;2022-07-29T04:51:54;3.13;;;1.80;;
52432;SDS011;38352;53.244;6.594;2022-07-29T04:54:20;8.30;;;2.63;;
52432;SDS011;38352;53.244;6.594;2022-07-29T04:56:46;4.57;;;2.50;;
52432;SDS011;38352;53.244;6.594;2022-07-29T04:59:12;4.15;;;2.20;;
52432;SDS011;38352;53.244;6.594;2022-07-29T05:01:38;6.38;;;2.28;;
52432;SDS011;38352;53.244;6.594;2022-07-29T05:04:04;4.72;;;2.28;;
52432;SDS011;38352;53.244;6.594;2022-07-29T05:06:30;5.00;;;2.10;;
52432;SDS011;38352;53.244;6.594;2022-07-29T05:08:56;7.47;;;2.90;;
52432;SDS011;38352;53.244;6.594;2022-07-29T05:11:22;5.65;;;2.33;;
52432;SDS011;38352;53.244;6.594;2022-07-29T05:13:49;8.40;;;2.22;;
52432;SDS011;38352;53.244;6.594;2022-07-29T05:16:15;6.65;;;2.58;;
52432;SDS011;38352;53.244;6.594;2022-07-29T05:18:41;4.45;;;2.58;;
52432;SDS011;38352;53.244;6.594;2022-07-29T05:21:07;3.83;;;2.00;;
52432;SDS011;38352;53.244;6.594;2022-07-29T05:23:33;4.63;;;1.92;;
52432;SDS011;38352;53.244;6.594;2022-07-29T05:25:59;5.18;;;1.88;;
52432;SDS011;38352;53.244;6.594;2022-07-29T05:28:25;5.38;;;2.13;;
52432;SDS011;38352;53.244;6.594;2022-07-29T05:30:51;4.70;;;1.90;;
52432;SDS011;38352;53.244;6.594;2022-07-29T05:33:17;5.55;;;1.75;;
52432;SDS011;38352;53.244;6.594;2022-07-29T05:35:43;16.10;;;2.60;;
52432;SDS011;38352;53.244;6.594;2022-07-29T05:38:09;5.78;;;2.15;;
52432;SDS011;38352;53.244;6.594;2022-07-29T05:40:35;6.85;;;2.35;;
52432;SDS011;38352;53.244;6.594;2022-07-29T05:43:01;8.65;;;2.17;;
52432;SDS011;38352;53.244;6.594;2022-07-29T05:45:27;6.93;;;2.00;;
52432;SDS011;38352;53.244;6.594;2022-07-29T05:47:53;6.47;;;2.17;;
52432;SDS011;38352;53.244;6.594;2022-07-29T05:50:20;4.15;;;2.13;;
52432;SDS011;38352;53.244;6.594;2022-07-29T05:52:46;4.10;;;2.10;;
52432;SDS011;38352;53.244;6.594;2022-07-29T05:55:12;5.90;;;2.03;;
52432;SDS011;38352;53.244;6.594;2022-07-29T05:57:38;6.90;;;2.00;;
52432;SDS011;38352;53.244;6.594;2022-07-29T06:00:04;6.85;;;2.22;;
52432;SDS011;38352;53.244;6.594;2022-07-29T06:02:30;5.63;;;2.20;;
52432;SDS011;38352;53.244;6.594;2022-07-29T06:04:56;3.75;;;1.95;;
52432;SDS011;38352;53.244;6.594;2022-07-29T06:07:23;5.22;;;1.83;;
52432;SDS011;38352;53.244;6.594;2022-07-29T06:09:49;6.88;;;2.45;;
52432;SDS011;38352;53.244;6.594;2022-07-29T06:12:15;4.20;;;2.00;;
52432;SDS011;38352;53.244;6.594;2022-07-29T06:14:41;4.75;;;2.40;;
52432;SDS011;38352;53.244;6.594;2022-07-29T06:17:07;5.65;;;2.63;;
52432;SDS011;38352;53.244;6.594;2022-07-29T06:19:36;7.95;;;1.83;;
52432;SDS011;38352;53.244;6.594;2022-07-29T06:22:02;9.98;;;2.58;;
52432;SDS011;38352;53.244;6.594;2022-07-29T06:24:28;8.38;;;2.50;;
52432;SDS011;38352;53.244;6.594;2022-07-29T06:26:54;5.43;;;2.80;;
52432;SDS011;38352;53.244;6.594;2022-07-29T06:29:20;6.28;;;2.40;;
52432;SDS011;38352;53.244;6.594;2022-07-29T06:31:47;10.25;;;2.67;;
52432;SDS011;38352;53.244;6.594;2022-07-29T06:34:13;6.55;;;2.17;;
52432;SDS011;38352;53.244;6.594;2022-07-29T06:36:39;4.28;;;2.30;;
52432;SDS011;38352;53.244;6.594;2022-07-29T06:39:08;7.15;;;2.33;;
52432;SDS011;38352;53.244;6.594;2022-07-29T06:41:34;8.35;;;2.78;;
52432;SDS011;38352;53.244;6.594;2022-07-29T06:44:00;4.72;;;2.88;;
52432;SDS011;38352;53.244;6.594;2022-07-29T06:46:27;5.63;;;2.38;;
52432;SDS011;38352;53.244;6.594;2022-07-29T06:48:53;8.55;;;3.10;;
52432;SDS011;38352;53.244;6.594;2022-07-29T06:51:20;5.57;;;2.13;;
52432;SDS011;38352;53.244;6.594;2022-07-29T06:53:46;4.22;;;2.38;;
52432;SDS011;38352;53.244;6.594;2022-07-29T06:56:12;6.57;;;2.50;;
52432;SDS011;38352;53.244;6.594;2022-07-29T06:58:39;6.95;;;2.60;;
52432;SDS011;38352;53.244;6.594;2022-07-29T07:01:05;6.00;;;2.75;;
52432;SDS011;38352;53.244;6.594;2022-07-29T07:03:32;8.60;;;2.10;;
52432;SDS011;38352;53.244;6.594;2022-07-29T07:05:58;8.07;;;2.58;;
52432;SDS011;38352;53.244;6.594;2022-07-29T07:08:24;7.43;;;2.83;;
52432;SDS011;38352;53.244;6.594;2022-07-29T07:10:51;4.38;;;2.22;;
52432;SDS011;38352;53.244;6.594;2022-07-29T07:13:17;6.18;;;2.50;;
52432;SDS011;38352;53.244;6.594;2022-07-29T07:15:46;6.07;;;2.50;;
52432;SDS011;38352;53.244;6.594;2022-07-29T07:18:13;5.32;;;2.40;;
52432;SDS011;38352;53.244;6.594;2022-07-29T07:20:40;6.82;;;2.72;;
52432;SDS011;38352;53.244;6.594;2022-07-29T07:23:06;5.63;;;2.60;;
52432;SDS011;38352;53.244;6.594;2022-07-29T07:25:32;6.88;;;2.28;;
52432;SDS011;38352;53.244;6.594;2022-07-29T07:27:58;5.63;;;2.40;;
52432;SDS011;38352;53.244;6.594;2022-07-29T07:30:24;4.18;;;2.20;;
52432;SDS011;38352;53.244;6.594;2022-07-29T07:32:52;6.07;;;2.42;;
52432;SDS011;38352;53.244;6.594;2022-07-29T07:35:18;6.47;;;2.25;;
52432;SDS011;38352;53.244;6.594;2022-07-29T07:37:44;9.15;;;2.75;;
52432;SDS011;38352;53.244;6.594;2022-07-29T07:40:11;9.48;;;2.60;;
52432;SDS011;38352;53.244;6.594;2022-07-29T07:42:38;9.82;;;2.67;;
52432;SDS011;38352;53.244;6.594;2022-07-29T07:45:04;5.03;;;2.10;;
52432;SDS011;38352;53.244;6.594;2022-07-29T07:47:31;8.05;;;2.70;;
52432;SDS011;38352;53.244;6.594;2022-07-29T07:49:57;7.22;;;2.92;;
52432;SDS011;38352;53.244;6.594;2022-07-29T07:52:23;8.38;;;2.85;;
52432;SDS011;38352;53.244;6.594;2022-07-29T07:54:50;7.18;;;2.70;;
52432;SDS011;38352;53.244;6.594;2022-07-29T07:57:16;8.02;;;2.55;;
52432;SDS011;38352;53.244;6.594;2022-07-29T07:59:42;7.28;;;2.90;;
52432;SDS011;38352;53.244;6.594;2022-07-29T08:02:09;7.32;;;2.65;;
52432;SDS011;38352;53.244;6.594;2022-07-29T08:04:35;5.15;;;2.20;;
52432;SDS011;38352;53.244;6.594;2022-07-29T08:07:01;7.43;;;2.65;;
52432;SDS011;38352;53.244;6.594;2022-07-29T08:09:28;7.18;;;2.90;;
52432;SDS011;38352;53.244;6.594;2022-07-29T08:11:55;5.85;;;3.10;;
52432;SDS011;38352;53.244;6.594;2022-07-29T08:14:21;7.35;;;2.53;;
52432;SDS011;38352;53.244;6.594;2022-07-29T08:16:47;5.38;;;2.88;;
52432;SDS011;38352;53.244;6.594;2022-07-29T08:19:14;7.47;;;2.80;;
52432;SDS011;38352;53.244;6.594;2022-07-29T08:21:40;7.60;;;3.55;;
52432;SDS011;38352;53.244;6.594;2022-07-29T08:24:06;7.88;;;2.72;;
52432;SDS011;38352;53.244;6.594;2022-07-29T08:26:51;7.80;;;2.83;;
52432;SDS011;38352;53.244;6.594;2022-07-29T08:29:17;7.50;;;2.42;;
52432;SDS011;38352;53.244;6.594;2022-07-29T08:31:43;7.35;;;2.72;;
52432;SDS011;38352;53.244;6.594;2022-07-29T08:34:11;9.10;;;2.70;;
52432;SDS011;38352;53.244;6.594;2022-07-29T08:36:37;8.93;;;2.60;;
52432;SDS011;38352;53.244;6.594;2022-07-29T08:39:03;7.25;;;2.30;;
52432;SDS011;38352;53.244;6.594;2022-07-29T08:41:30;5.35;;;2.33;;
52432;SDS011;38352;53.244;6.594;2022-07-29T08:43:56;5.63;;;2.70;;
52432;SDS011;38352;53.244;6.594;2022-07-29T08:46:22;5.53;;;2.47;;
52432;SDS011;38352;53.244;6.594;2022-07-29T08:48:49;6.30;;;2.40;;
52432;SDS011;38352;53.244;6.594;2022-07-29T08:51:16;6.78;;;2.45;;
52432;SDS011;38352;53.244;6.594;2022-07-29T08:53:43;5.97;;;2.63;;
52432;SDS011;38352;53.244;6.594;2022-07-29T08:56:13;5.53;;;2.40;;
52432;SDS011;38352;53.244;6.594;2022-07-29T08:58:39;9.52;;;2.70;;
52432;SDS011;38352;53.244;6.594;2022-07-29T09:01:05;6.97;;;2.75;;
52432;SDS011;38352;53.244;6.594;2022-07-29T09:03:32;7.82;;;2.63;;
52432;SDS011;38352;53.244;6.594;2022-07-29T09:06:00;8.07;;;3.30;;
52432;SDS011;38352;53.244;6.594;2022-07-29T09:08:27;7.80;;;2.55;;
52432;SDS011;38352;53.244;6.594;2022-07-29T09:10:54;7.82;;;3.03;;
52432;SDS011;38352;53.244;6.594;2022-07-29T09:13:23;8.00;;;2.83;;
52432;SDS011;38352;53.244;6.594;2022-07-29T09:15:50;7.55;;;2.72;;
52432;SDS011;38352;53.244;6.594;2022-07-29T09:21:01;7.00;;;2.67;;
52432;SDS011;38352;53.244;6.594;2022-07-29T09:23:59;5.50;;;3.05;;
52432;SDS011;38352;53.244;6.594;2022-07-29T09:26:31;3.88;;;2.25;;
52432;SDS011;38352;53.244;6.594;2022-07-29T09:28:57;10.05;;;3.25;;
52432;SDS011;38352;53.244;6.594;2022-07-29T09:31:34;6.85;;;2.83;;
52432;SDS011;38352;53.244;6.594;2022-07-29T09:34:00;7.97;;;3.47;;
52432;SDS011;38352;53.244;6.594;2022-07-29T09:36:26;5.80;;;3.10;;
52432;SDS011;38352;53.244;6.594;2022-07-29T09:38:59;5.97;;;3.03;;
52432;SDS011;38352;53.244;6.594;2022-07-29T09:41:26;8.47;;;2.93;;
52432;SDS011;38352;53.244;6.594;2022-07-29T09:43:53;8.68;;;2.90;;
52432;SDS011;38352;53.244;6.594;2022-07-29T09:46:19;7.35;;;3.25;;
52432;SDS011;38352;53.244;6.594;2022-07-29T09:48:45;8.10;;;3.03;;
52432;SDS011;38352;53.244;6.594;2022-07-29T09:51:31;6.28;;;2.60;;
52432;SDS011;38352;53.244;6.594;2022-07-29T09:53:57;6.65;;;2.80;;
52432;SDS011;38352;53.244;6.594;2022-07-29T09:56:38;6.97;;;2.50;;
52432;SDS011;38352;53.244;6.594;2022-07-29T09:59:08;8.75;;;3.20;;
52432;SDS011;38352;53.244;6.594;2022-07-29T10:01:36;6.70;;;3.05;;
52432;SDS011;38352;53.244;6.594;2022-07-29T10:04:02;5.72;;;2.90;;
52432;SDS011;38352;53.244;6.594;2022-07-29T10:06:28;6.32;;;2.85;;
52432;SDS011;38352;53.244;6.594;2022-07-29T10:08:54;5.07;;;2.70;;
52432;SDS011;38352;53.244;6.594;2022-07-29T10:11:20;9.80;;;3.13;;
52432;SDS011;38352;53.244;6.594;2022-07-29T10:13:47;6.00;;;2.65;;
52432;SDS011;38352;53.244;6.594;2022-07-29T10:16:14;7.43;;;3.05;;
52432;SDS011;38352;53.244;6.594;2022-07-29T10:18:41;4.93;;;2.65;;
52432;SDS011;38352;53.244;6.594;2022-07-29T10:21:08;5.82;;;3.22;;
52432;SDS011;38352;53.244;6.594;2022-07-29T10:23:35;5.38;;;3.20;;
52432;SDS011;38352;53.244;6.594;2022-07-29T10:26:02;7.28;;;2.90;;
52432;SDS011;38352;53.244;6.594;2022-07-29T10:28:29;7.53;;;3.83;;
52432;SDS011;38352;53.244;6.594;2022-07-29T10:30:58;7.28;;;3.40;;
52432;SDS011;38352;53.244;6.594;2022-07-29T10:36:23;11.82;;;3.28;;
52432;SDS011;38352;53.244;6.594;2022-07-29T10:44:23;8.13;;;3.80;;
52432;SDS011;38352;53.244;6.594;2022-07-29T10:46:50;6.63;;;3.50;;
52432;SDS011;38352;53.244;6.594;2022-07-29T10:49:20;6.28;;;3.30;;
52432;SDS011;38352;53.244;6.594;2022-07-29T10:54:16;8.98;;;3.80;;
52432;SDS011;38352;53.244;6.594;2022-07-29T10:56:42;7.05;;;3.85;;
52432;SDS011;38352;53.244;6.594;2022-07-29T11:01:47;8.30;;;3.63;;
52432;SDS011;38352;53.244;6.594;2022-07-29T11:04:14;10.25;;;4.25;;
52432;SDS011;38352;53.244;6.594;2022-07-29T11:09:27;6.10;;;3.85;;
52432;SDS011;38352;53.244;6.594;2022-07-29T11:11:55;8.05;;;3.75;;
52432;SDS011;38352;53.244;6.594;2022-07-29T11:17:06;8.70;;;4.35;;
52432;SDS011;38352;53.244;6.594;2022-07-29T11:19:33;9.82;;;4.95;;
52432;SDS011;38352;53.244;6.594;2022-07-29T11:22:00;8.93;;;4.53;;
52432;SDS011;38352;53.244;6.594;2022-07-29T11:24:27;8.93;;;3.92;;
52432;SDS011;38352;53.244;6.594;2022-07-29T11:27:15;9.23;;;4.80;;
52432;SDS011;38352;53.244;6.594;2022-07-29T11:29:51;8.85;;;3.95;;
52432;SDS011;38352;53.244;6.594;2022-07-29T11:32:18;9.70;;;4.55;;
52432;SDS011;38352;53.244;6.594;2022-07-29T11:34:45;6.05;;;3.97;;
52432;SDS011;38352;53.244;6.594;2022-07-29T11:39:38;8.63;;;3.85;;
52432;SDS011;38352;53.244;6.594;2022-07-29T11:45:05;8.35;;;3.67;;
52432;SDS011;38352;53.244;6.594;2022-07-29T11:47:33;7.80;;;4.80;;
52432;SDS011;38352;53.244;6.594;2022-07-29T11:50:00;6.25;;;3.92;;
52432;SDS011;38352;53.244;6.594;2022-07-29T11:52:34;8.90;;;4.00;;
52432;SDS011;38352;53.244;6.594;2022-07-29T11:55:02;7.95;;;3.78;;
52432;SDS011;38352;53.244;6.594;2022-07-29T11:57:29;8.52;;;4.30;;
52432;SDS011;38352;53.244;6.594;2022-07-29T11:59:56;6.22;;;3.75;;
52432;SDS011;38352;53.244;6.594;2022-07-29T12:02:23;8.50;;;3.40;;
52432;SDS011;38352;53.244;6.594;2022-07-29T12:04:54;7.88;;;3.88;;
52432;SDS011;38352;53.244;6.594;2022-07-29T12:07:30;9.38;;;3.83;;
52432;SDS011;38352;53.244;6.594;2022-07-29T12:09:56;6.97;;;3.42;;
52432;SDS011;38352;53.244;6.594;2022-07-29T12:12:23;6.28;;;3.17;;
52432;SDS011;38352;53.244;6.594;2022-07-29T12:14:49;8.50;;;3.30;;
52432;SDS011;38352;53.244;6.594;2022-07-29T12:17:34;6.18;;;3.17;;
52432;SDS011;38352;53.244;6.594;2022-07-29T12:20:01;7.93;;;3.75;;
52432;SDS011;38352;53.244;6.594;2022-07-29T12:22:32;8.60;;;3.38;;
52432;SDS011;38352;53.244;6.594;2022-07-29T12:25:16;8.93;;;3.88;;
52432;SDS011;38352;53.244;6.594;2022-07-29T12:27:43;9.75;;;3.42;;
52432;SDS011;38352;53.244;6.594;2022-07-29T12:30:11;6.00;;;3.35;;
52432;SDS011;38352;53.244;6.594;2022-07-29T12:32:38;6.80;;;3.58;;
52432;SDS011;38352;53.244;6.594;2022-07-29T12:35:12;10.15;;;3.42;;
52432;SDS011;38352;53.244;6.594;2022-07-29T12:37:41;6.85;;;3.33;;
52432;SDS011;38352;53.244;6.594;2022-07-29T12:40:08;8.55;;;3.00;;
52432;SDS011;38352;53.244;6.594;2022-07-29T12:42:34;7.75;;;3.25;;
52432;SDS011;38352;53.244;6.594;2022-07-29T12:45:01;9.95;;;3.05;;
52432;SDS011;38352;53.244;6.594;2022-07-29T12:47:28;7.53;;;2.83;;
52432;SDS011;38352;53.244;6.594;2022-07-29T12:50:10;5.68;;;2.95;;
52432;SDS011;38352;53.244;6.594;2022-07-29T12:52:37;7.50;;;2.95;;
52432;SDS011;38352;53.244;6.594;2022-07-29T12:55:03;8.57;;;3.13;;
52432;SDS011;38352;53.244;6.594;2022-07-29T12:57:30;10.20;;;2.97;;
52432;SDS011;38352;53.244;6.594;2022-07-29T13:00:10;6.20;;;3.05;;
52432;SDS011;38352;53.244;6.594;2022-07-29T13:02:37;8.02;;;3.25;;
52432;SDS011;38352;53.244;6.594;2022-07-29T13:05:04;4.68;;;2.70;;
52432;SDS011;38352;53.244;6.594;2022-07-29T13:07:31;5.13;;;3.20;;
52432;SDS011;38352;53.244;6.594;2022-07-29T13:10:17;17.98;;;3.90;;
52432;SDS011;38352;53.244;6.594;2022-07-29T13:15:27;6.38;;;2.95;;
52432;SDS011;38352;53.244;6.594;2022-07-29T13:17:53;10.35;;;4.00;;
52432;SDS011;38352;53.244;6.594;2022-07-29T13:20:23;8.10;;;3.60;;
52432;SDS011;38352;53.244;6.594;2022-07-29T13:22:49;6.85;;;2.85;;
52432;SDS011;38352;53.244;6.594;2022-07-29T13:25:23;7.57;;;3.28;;
52432;SDS011;38352;53.244;6.594;2022-07-29T13:27:49;5.88;;;3.10;;
52432;SDS011;38352;53.244;6.594;2022-07-29T13:30:15;7.03;;;3.50;;
52432;SDS011;38352;53.244;6.594;2022-07-29T13:32:41;9.73;;;3.30;;
52432;SDS011;38352;53.244;6.594;2022-07-29T13:35:07;7.03;;;3.20;;
52432;SDS011;38352;53.244;6.594;2022-07-29T13:37:34;8.23;;;3.28;;
52432;SDS011;38352;53.244;6.594;2022-07-29T13:40:03;6.55;;;2.97;;
52432;SDS011;38352;53.244;6.594;2022-07-29T13:42:29;10.85;;;3.85;;
52432;SDS011;38352;53.244;6.594;2022-07-29T13:44:56;6.40;;;3.38;;
52432;SDS011;38352;53.244;6.594;2022-07-29T13:47:22;10.40;;;2.75;;
52432;SDS011;38352;53.244;6.594;2022-07-29T13:49:48;6.07;;;2.78;;
52432;SDS011;38352;53.244;6.594;2022-07-29T13:52:14;8.95;;;3.08;;
52432;SDS011;38352;53.244;6.594;2022-07-29T13:54:41;8.85;;;2.85;;
52432;SDS011;38352;53.244;6.594;2022-07-29T13:57:07;11.27;;;3.10;;
52432;SDS011;38352;53.244;6.594;2022-07-29T13:59:33;8.20;;;3.22;;
52432;SDS011;38352;53.244;6.594;2022-07-29T14:01:59;11.05;;;2.60;;
52432;SDS011;38352;53.244;6.594;2022-07-29T14:04:25;7.40;;;2.33;;
52432;SDS011;38352;53.244;6.594;2022-07-29T14:06:52;7.05;;;2.90;;
52432;SDS011;38352;53.244;6.594;2022-07-29T14:09:18;5.78;;;2.63;;
52432;SDS011;38352;53.244;6.594;2022-07-29T14:11:44;8.00;;;3.00;;
52432;SDS011;38352;53.244;6.594;2022-07-29T14:14:10;5.90;;;2.72;;
52432;SDS011;38352;53.244;6.594;2022-07-29T14:16:37;5.22;;;2.25;;
52432;SDS011;38352;53.244;6.594;2022-07-29T14:19:03;5.88;;;2.88;;
52432;SDS011;38352;53.244;6.594;2022-07-29T14:21:29;5.70;;;2.78;;
52432;SDS011;38352;53.244;6.594;2022-07-29T14:23:55;6.63;;;2.40;;
52432;SDS011;38352;53.244;6.594;2022-07-29T14:26:21;8.43;;;2.78;;
52432;SDS011;38352;53.244;6.594;2022-07-29T14:28:48;9.07;;;3.20;;
52432;SDS011;38352;53.244;6.594;2022-07-29T14:31:14;8.60;;;2.95;;
52432;SDS011;38352;53.244;6.594;2022-07-29T14:33:40;7.05;;;3.20;;
52432;SDS011;38352;53.244;6.594;2022-07-29T14:36:07;7.15;;;2.50;;
52432;SDS011;38352;53.244;6.594;2022-07-29T14:38:34;8.43;;;2.65;;
52432;SDS011;38352;53.244;6.594;2022-07-29T14:41:00;7.28;;;2.40;;
52432;SDS011;38352;53.244;6.594;2022-07-29T14:43:26;5.78;;;2.45;;
52432;SDS011;38352;53.244;6.594;2022-07-29T14:45:52;7.65;;;2.45;;
52432;SDS011;38352;53.244;6.594;2022-07-29T14:48:18;5.60;;;3.25;;
52432;SDS011;38352;53.244;6.594;2022-07-29T14:50:44;4.88;;;2.60;;
52432;SDS011;38352;53.244;6.594;2022-07-29T14:53:10;6.28;;;2.75;;
52432;SDS011;38352;53.244;6.594;2022-07-29T14:55:39;6.78;;;2.90;;
52432;SDS011;38352;53.244;6.594;2022-07-29T14:58:07;5.57;;;3.08;;
52432;SDS011;38352;53.244;6.594;2022-07-29T15:00:33;8.30;;;2.85;;
52432;SDS011;38352;53.244;6.594;2022-07-29T15:03:00;6.60;;;2.55;;
52432;SDS011;38352;53.244;6.594;2022-07-29T15:05:26;7.78;;;2.58;;
52432;SDS011;38352;53.244;6.594;2022-07-29T15:07:52;5.72;;;2.85;;
52432;SDS011;38352;53.244;6.594;2022-07-29T15:10:18;10.15;;;4.07;;
52432;SDS011;38352;53.244;6.594;2022-07-29T15:12:45;6.00;;;2.45;;
52432;SDS011;38352;53.244;6.594;2022-07-29T15:15:11;8.23;;;2.70;;
52432;SDS011;38352;53.244;6.594;2022-07-29T15:17:37;5.03;;;2.38;;
52432;SDS011;38352;53.244;6.594;2022-07-29T15:20:03;5.70;;;2.35;;
52432;SDS011;38352;53.244;6.594;2022-07-29T15:22:29;5.90;;;2.63;;
52432;SDS011;38352;53.244;6.594;2022-07-29T15:24:55;6.43;;;2.45;;
52432;SDS011;38352;53.244;6.594;2022-07-29T15:27:21;5.90;;;2.17;;
52432;SDS011;38352;53.244;6.594;2022-07-29T15:29:47;7.85;;;2.55;;
52432;SDS011;38352;53.244;6.594;2022-07-29T15:32:14;7.00;;;2.75;;
52432;SDS011;38352;53.244;6.594;2022-07-29T15:34:40;4.40;;;2.40;;
52432;SDS011;38352;53.244;6.594;2022-07-29T15:37:06;4.15;;;2.10;;